createdAt,value
2018-09-20T00:00:45.363Z,11.80
2018-09-20T00:01:45.399Z,13.70
2018-09-20T00:02:45.431Z,15.20
2018-09-20T00:03:45.466Z,10.70
2018-09-20T00:04:45.502Z,12.00
2018-09-20T00:05:45.536Z,11.40
2018-09-20T00:06:45.570Z,11.90
2018-09-20T00:07:45.604Z,11.40
2018-09-20T00:08:45.639Z,11.30
2018-09-20T00:09:45.673Z,15.30
2018-09-20T00:10:45.707Z,13.90
2018-09-20T00:11:45.742Z,12.00
2018-09-20T00:12:45.776Z,12.60
2018-09-20T00:13:45.815Z,14.80
2018-09-20T00:14:45.844Z,19.70
2018-09-20T00:15:45.879Z,11.00
2018-09-20T00:16:45.913Z,12.70
2018-09-20T00:17:45.949Z,13.70
2018-09-20T00:18:45.982Z,15.00
2018-09-20T00:19:46.020Z,13.60
2018-09-20T00:20:46.051Z,13.50
2018-09-20T00:21:46.085Z,14.10
2018-09-20T00:22:46.120Z,11.40
2018-09-20T00:23:46.157Z,19.10
2018-09-20T00:24:46.187Z,13.70
2018-09-20T00:25:46.224Z,16.40
2018-09-20T00:26:46.256Z,13.10
2018-09-20T00:27:46.293Z,12.30
2018-09-20T00:28:46.326Z,12.90
2018-09-20T00:29:46.363Z,11.90
2018-09-20T00:30:46.396Z,12.50
2018-09-20T00:31:46.427Z,12.30
2018-09-20T00:32:46.461Z,12.20
2018-09-20T00:33:46.497Z,13.30
2018-09-20T00:34:46.531Z,12.20
2018-09-20T00:35:46.565Z,11.30
2018-09-20T00:36:46.597Z,11.60
2018-09-20T00:37:46.633Z,11.90
2018-09-20T00:38:46.666Z,12.00
2018-09-20T00:39:46.700Z,11.30
2018-09-20T00:40:46.735Z,11.70
2018-09-20T00:41:46.769Z,10.80
2018-09-20T00:42:46.802Z,13.40
2018-09-20T00:43:46.837Z,13.00
2018-09-20T00:44:46.872Z,17.90
2018-09-20T00:45:46.906Z,11.90
2018-09-20T00:46:46.940Z,17.90
2018-09-20T00:47:46.974Z,14.50
2018-09-20T00:48:47.006Z,12.40
2018-09-20T00:49:47.043Z,11.80
2018-09-20T00:50:47.077Z,13.70
2018-09-20T00:51:47.111Z,11.60
2018-09-20T00:52:47.145Z,10.80
2018-09-20T00:53:47.180Z,11.30
2018-09-20T00:54:47.212Z,11.60
2018-09-20T00:55:47.247Z,11.60
2018-09-20T00:56:47.281Z,13.50
2018-09-20T00:57:47.315Z,11.20
2018-09-20T00:58:47.350Z,18.40
2018-09-20T00:59:47.383Z,12.00
2018-09-20T01:00:47.418Z,12.20
2018-09-20T01:01:47.452Z,17.20
2018-09-20T01:02:47.488Z,13.00
2018-09-20T01:03:47.522Z,12.40
2018-09-20T01:04:47.554Z,14.50
2018-09-20T01:05:47.588Z,14.10
2018-09-20T01:06:47.622Z,20.20
2018-09-20T01:07:47.656Z,11.90
2018-09-20T01:08:47.691Z,12.30
2018-09-20T01:10:47.758Z,13.00
2018-09-20T01:11:47.792Z,12.40
2018-09-20T01:12:47.826Z,16.30
2018-09-20T01:13:47.862Z,17.10
2018-09-20T01:14:47.899Z,11.70
2018-09-20T01:15:47.929Z,11.20
2018-09-20T01:16:47.962Z,12.10
2018-09-20T01:17:47.998Z,12.30
2018-09-20T01:18:48.031Z,11.60
2018-09-20T01:19:48.065Z,13.90
2018-09-20T01:20:48.100Z,12.70
2018-09-20T01:21:48.133Z,12.70
2018-09-20T01:22:48.167Z,15.00
2018-09-20T01:23:48.200Z,13.40
2018-09-20T01:24:48.235Z,11.80
2018-09-20T01:25:48.271Z,12.60
2018-09-20T01:26:48.302Z,13.10
2018-09-20T01:27:48.337Z,12.70
2018-09-20T01:28:48.370Z,12.30
2018-09-20T01:29:48.404Z,12.60
2018-09-20T01:30:48.438Z,18.60
2018-09-20T01:31:48.526Z,15.80
2018-09-20T01:32:48.508Z,12.20
2018-09-20T01:33:48.541Z,16.10
2018-09-20T01:34:48.573Z,11.30
2018-09-20T01:35:48.609Z,15.60
2018-09-20T01:36:48.642Z,12.20
2018-09-20T01:37:48.679Z,15.90
2018-09-20T01:40:48.778Z,12.20
2018-09-20T01:41:49.017Z,14.90
2018-09-20T01:43:48.880Z,14.30
2018-09-20T01:44:48.913Z,12.00
2018-09-20T01:45:48.947Z,11.40
2018-09-20T01:46:48.981Z,12.70
2018-09-20T01:47:49.014Z,12.10
2018-09-20T01:49:36.615Z,15.70
2018-09-20T01:50:36.644Z,14.70
2018-09-20T01:51:36.675Z,17.10
2018-09-20T01:52:36.714Z,13.10
2018-09-20T01:53:36.743Z,12.00
2018-09-20T01:54:36.779Z,16.40
2018-09-20T01:55:36.811Z,12.70
2018-09-20T01:56:36.858Z,13.50
2018-09-20T01:57:36.879Z,12.50
2018-09-20T01:58:36.925Z,13.20
2018-09-20T01:59:36.948Z,13.40
2018-09-20T02:00:36.981Z,13.40
2018-09-20T02:01:37.015Z,17.80
2018-09-20T02:02:37.051Z,13.70
2018-09-20T02:03:37.082Z,15.30
2018-09-20T02:04:37.116Z,13.10
2018-09-20T02:05:37.150Z,15.50
2018-09-20T02:06:37.184Z,12.50
2018-09-20T02:07:37.222Z,13.30
2018-09-20T02:08:37.251Z,14.30
2018-09-20T02:09:37.285Z,13.90
2018-09-20T02:10:37.320Z,17.30
2018-09-20T02:11:37.352Z,12.80
2018-09-20T02:12:37.387Z,12.80
2018-09-20T02:13:37.425Z,16.70
2018-09-20T02:14:37.458Z,12.70
2018-09-20T02:15:37.489Z,12.20
2018-09-20T02:16:37.525Z,14.90
2018-09-20T02:17:37.556Z,12.50
2018-09-20T02:18:37.594Z,13.40
2018-09-20T02:19:37.626Z,15.30
2018-09-20T02:20:37.656Z,15.70
2018-09-20T02:21:37.689Z,14.20
2018-09-20T02:22:37.725Z,16.90
2018-09-20T02:23:37.758Z,17.40
2018-09-20T02:24:37.792Z,17.20
2018-09-20T02:25:37.827Z,13.20
2018-09-20T02:26:37.860Z,12.80
2018-09-20T02:27:37.894Z,13.60
2018-09-20T02:28:37.927Z,15.30
2018-09-20T02:29:37.961Z,14.30
2018-09-20T02:30:37.996Z,16.00
2018-09-20T02:31:38.035Z,17.30
2018-09-20T02:32:38.062Z,15.00
2018-09-20T02:33:38.097Z,13.80
2018-09-20T02:34:38.129Z,17.00
2018-09-20T02:35:38.164Z,18.80
2018-09-20T02:36:38.198Z,16.50
2018-09-20T02:37:38.234Z,12.80
2018-09-20T02:38:38.264Z,13.00
2018-09-20T02:39:38.298Z,13.50
2018-09-20T02:40:38.333Z,14.40
2018-09-20T02:41:38.568Z,12.70
2018-09-20T02:42:38.400Z,13.50
2018-09-20T02:43:38.432Z,14.20
2018-09-20T02:44:38.466Z,13.50
2018-09-20T02:45:38.504Z,12.50
2018-09-20T02:46:38.534Z,13.10
2018-09-20T02:47:38.568Z,14.80
2018-09-20T02:48:38.603Z,15.00
2018-09-20T02:49:38.635Z,13.60
2018-09-20T02:50:38.671Z,14.50
2018-09-20T02:51:38.702Z,13.30
2018-09-20T02:52:38.737Z,11.90
2018-09-20T02:53:38.770Z,13.40
2018-09-20T02:54:38.805Z,15.40
2018-09-20T02:55:38.837Z,19.10
2018-09-20T02:56:38.874Z,20.10
2018-09-20T02:57:38.904Z,16.40
2018-09-20T02:58:38.938Z,15.70
2018-09-20T02:59:38.971Z,12.60
2018-09-20T03:00:39.005Z,12.80
2018-09-20T03:01:39.041Z,12.80
2018-09-20T03:02:39.073Z,13.00
2018-09-20T03:03:39.109Z,12.50
2018-09-20T03:04:39.140Z,19.20
2018-09-20T03:06:39.208Z,17.20
2018-09-20T03:09:39.308Z,16.50
2018-09-20T03:12:39.814Z,14.60
2018-09-20T03:13:40.643Z,15.90
2018-09-20T03:14:39.476Z,13.90
2018-09-20T03:15:40.010Z,13.00
2018-09-20T03:16:39.544Z,19.10
2018-09-20T03:17:39.780Z,13.90
2018-09-20T03:18:39.814Z,16.00
2018-09-20T03:19:39.846Z,23.90
2018-09-20T03:20:39.880Z,14.00
2018-09-20T03:21:39.913Z,15.80
2018-09-20T03:23:39.778Z,17.30
2018-09-20T03:24:39.813Z,13.30
2018-09-20T03:25:39.846Z,13.90
2018-09-20T03:26:39.882Z,14.50
2018-09-20T03:27:39.913Z,15.30
2018-09-20T03:29:40.183Z,15.10
2018-09-20T03:30:40.092Z,12.60
2018-09-20T03:31:40.249Z,12.00
2018-09-20T03:32:40.082Z,18.00
2018-09-20T03:36:40.215Z,14.70
2018-09-20T03:37:40.453Z,13.50
2018-09-20T03:39:41.518Z,19.20
2018-09-20T03:45:40.722Z,13.00
2018-09-20T03:47:40.587Z,13.60
2018-09-20T03:49:42.055Z,13.50
2018-09-20T03:50:40.686Z,13.00
2018-09-20T03:58:40.954Z,14.40
2018-09-20T04:05:23.703Z,12.70
2018-09-20T04:06:23.741Z,14.30
2018-09-20T04:07:23.772Z,12.80
2018-09-20T04:08:23.803Z,13.90
2018-09-20T04:09:23.837Z,12.20
2018-09-20T04:10:23.871Z,14.00
2018-09-20T04:11:23.904Z,13.10
2018-09-20T04:12:23.936Z,15.90
2018-09-20T04:13:23.971Z,13.90
2018-09-20T04:14:24.006Z,12.40
2018-09-20T04:15:24.039Z,15.90
2018-09-20T04:16:24.070Z,14.00
2018-09-20T04:17:24.104Z,15.50
2018-09-20T04:18:24.144Z,13.80
2018-09-20T04:19:24.172Z,13.10
2018-09-20T04:20:24.205Z,15.80
2018-09-20T04:21:24.239Z,16.20
2018-09-20T04:22:24.272Z,14.00
2018-09-20T04:23:24.306Z,16.00
2018-09-20T04:24:24.338Z,14.20
2018-09-20T04:25:27.197Z,17.30
2018-09-20T04:27:24.441Z,13.80
2018-09-20T04:28:24.472Z,15.10
2018-09-20T04:29:24.505Z,17.50
2018-09-20T04:30:24.539Z,12.70
2018-09-20T04:31:24.573Z,17.90
2018-09-20T04:32:24.605Z,14.90
2018-09-20T04:33:24.638Z,18.70
2018-09-20T04:34:24.672Z,18.20
2018-09-20T04:35:24.706Z,20.90
2018-09-20T04:36:24.738Z,14.40
2018-09-20T05:55:36.227Z,20.20
2018-09-20T05:58:36.524Z,17.50
2018-09-20T05:59:36.558Z,16.20
2018-09-20T06:01:36.826Z,19.50
2018-09-20T06:02:36.658Z,20.90
2018-09-20T06:03:36.488Z,15.10
2018-09-20T06:04:36.523Z,19.30
2018-09-20T06:05:36.580Z,30.90
2018-09-20T06:06:36.592Z,59.50
2018-09-20T06:07:36.624Z,94.20
2018-09-20T06:08:36.658Z,105.30
2018-09-20T06:09:36.692Z,82.40
2018-09-20T06:10:36.928Z,60.40
2018-09-20T06:11:36.760Z,37.20
2018-09-20T06:12:36.793Z,19.50
2018-09-20T06:13:36.828Z,15.30
2018-09-20T06:14:37.065Z,16.50
2018-09-20T06:16:36.943Z,17.00
2018-09-20T06:17:37.006Z,14.90
2018-09-20T06:18:36.995Z,15.80
2018-09-20T06:19:37.031Z,16.80
2018-09-20T06:20:37.065Z,14.80
2018-09-20T06:21:37.148Z,19.30
2018-09-20T06:22:37.133Z,15.00
2018-09-20T06:23:37.166Z,18.60
2018-09-20T06:24:37.201Z,16.20
2018-09-20T06:25:37.235Z,23.30
2018-09-20T06:26:37.267Z,21.50
2018-09-20T06:27:37.356Z,26.60
2018-09-20T06:28:37.336Z,18.80
2018-09-20T06:29:37.374Z,22.90
2018-09-20T06:30:37.403Z,16.50
2018-09-20T06:31:37.438Z,18.40
2018-09-20T06:32:37.473Z,17.80
2018-09-20T06:33:37.513Z,19.30
2018-09-20T06:34:37.540Z,21.00
2018-09-20T06:35:37.577Z,18.40
2018-09-20T06:36:37.609Z,20.60
2018-09-20T06:37:37.643Z,23.20
2018-09-20T06:38:37.679Z,17.90
2018-09-20T06:39:37.711Z,20.90
2018-09-20T06:40:37.748Z,21.00
2018-09-20T06:41:37.780Z,19.50
2018-09-20T06:42:37.813Z,15.30
2018-09-20T06:43:37.849Z,22.80
2018-09-20T06:44:37.883Z,19.20
2018-09-20T06:45:37.916Z,17.30
2018-09-20T06:46:37.954Z,16.00
2018-09-20T06:47:37.986Z,19.60
2018-09-20T06:48:38.019Z,19.30
2018-09-20T06:49:38.057Z,15.20
2018-09-20T06:50:38.086Z,16.50
2018-09-20T06:51:38.121Z,18.10
2018-09-20T06:52:38.155Z,21.10
2018-09-20T06:53:38.192Z,20.60
2018-09-20T06:54:38.224Z,17.40
2018-09-20T06:55:38.259Z,17.50
2018-09-20T06:56:38.383Z,19.50
2018-09-20T06:57:38.328Z,20.80
2018-09-20T06:58:38.361Z,15.30
2018-09-20T06:59:38.398Z,15.80
2018-09-20T07:00:38.432Z,14.20
2018-09-20T07:01:38.466Z,14.40
2018-09-20T07:02:38.500Z,15.00
2018-09-20T07:03:38.538Z,16.40
2018-09-20T07:04:38.570Z,14.70
2018-09-20T07:05:38.607Z,19.40
2018-09-20T07:06:38.639Z,16.40
2018-09-20T07:07:38.675Z,16.60
2018-09-20T07:08:38.707Z,15.50
2018-09-20T07:09:38.745Z,20.00
2018-09-20T07:10:38.780Z,16.50
2018-09-20T07:11:38.814Z,14.70
2018-09-20T07:12:38.848Z,14.40
2018-09-20T07:13:38.937Z,14.90
2018-09-20T07:14:38.917Z,18.20
2018-09-20T07:15:38.954Z,13.90
2018-09-20T07:16:38.989Z,19.50
2018-09-20T07:17:39.023Z,14.90
2018-09-20T07:18:39.058Z,20.40
2018-09-20T07:19:39.093Z,13.40
2018-09-20T07:20:39.129Z,15.40
2018-09-20T07:21:39.164Z,13.90
2018-09-20T07:22:39.244Z,12.80
2018-09-20T07:23:39.234Z,19.60
2018-09-20T07:24:39.270Z,12.10
2018-09-20T07:25:39.360Z,13.30
2018-09-20T07:26:39.340Z,12.60
2018-09-20T07:27:39.375Z,11.60
2018-09-20T07:28:39.413Z,12.80
2018-09-20T07:29:39.450Z,12.90
2018-09-20T07:30:39.484Z,12.10
2018-09-20T07:31:39.518Z,15.10
2018-09-20T07:32:39.625Z,13.80
2018-09-20T07:33:39.599Z,11.80
2018-09-20T07:34:39.625Z,13.70
2018-09-20T07:35:39.661Z,14.90
2018-09-20T07:36:39.698Z,14.40
2018-09-20T07:37:39.734Z,17.80
2018-09-20T07:38:39.769Z,11.90
2018-09-20T07:39:39.808Z,15.60
2018-09-20T07:40:39.843Z,13.30
2018-09-20T07:41:39.879Z,13.20
2018-09-20T07:42:39.921Z,12.50
2018-09-20T07:43:40.064Z,11.90
2018-09-20T07:44:39.987Z,12.70
2018-09-20T07:45:40.030Z,11.90
2018-09-20T07:46:40.060Z,11.30
2018-09-20T07:47:40.099Z,14.90
2018-09-20T07:48:40.137Z,11.90
2018-09-20T07:49:40.172Z,13.30
2018-09-20T07:50:40.207Z,10.80
2018-09-20T07:51:40.244Z,11.00
2018-09-20T07:52:40.283Z,12.00
2018-09-20T07:53:40.363Z,11.30
2018-09-20T07:54:40.355Z,16.70
2018-09-20T07:55:40.397Z,12.20
2018-09-20T07:56:40.436Z,12.50
2018-09-20T07:57:40.468Z,10.90
2018-09-20T07:58:40.527Z,17.70
2018-09-20T07:59:40.543Z,11.40
2018-09-20T08:00:40.579Z,13.90
2018-09-20T08:01:40.670Z,10.80
2018-09-20T08:02:40.656Z,11.60
2018-09-20T08:03:40.692Z,11.60
2018-09-20T08:04:40.731Z,11.90
2018-09-20T08:05:40.773Z,10.50
2018-09-20T08:06:40.805Z,10.40
2018-09-20T08:07:40.843Z,12.50
2018-09-20T08:08:40.884Z,11.80
2018-09-20T08:09:40.921Z,11.30
2018-09-20T08:10:40.956Z,11.50
2018-09-20T08:11:40.995Z,10.50
2018-09-20T08:12:41.033Z,11.20
2018-09-20T08:13:41.071Z,12.30
2018-09-20T08:14:41.109Z,11.80
2018-09-20T08:15:41.148Z,12.20
2018-09-20T08:16:41.188Z,10.50
2018-09-20T08:17:41.226Z,11.00
2018-09-20T08:18:41.263Z,11.10
2018-09-20T08:22:07.649Z,10.30
2018-09-20T08:23:07.239Z,10.40
2018-09-20T08:24:07.277Z,10.20
2018-09-20T08:25:07.315Z,16.20
2018-09-20T08:26:07.355Z,9.70
2018-09-20T08:27:07.393Z,10.10
2018-09-20T08:28:07.433Z,10.10
2018-09-20T08:29:07.472Z,16.50
2018-09-20T08:30:07.511Z,9.40
2018-09-20T08:31:07.551Z,10.10
2018-09-20T08:32:07.590Z,12.10
2018-09-20T08:33:07.629Z,10.50
2018-09-20T08:34:07.669Z,9.30
2018-09-20T08:35:07.710Z,11.50
2018-09-20T08:36:07.749Z,9.20
2018-09-20T08:37:07.851Z,9.70
2018-09-20T08:38:07.831Z,9.00
2018-09-20T08:39:07.870Z,9.30
2018-09-20T08:40:07.910Z,10.00
2018-09-20T08:41:07.948Z,9.50
2018-09-20T08:42:08.014Z,9.20
2018-09-20T08:43:08.028Z,10.10
2018-09-20T08:44:08.069Z,13.50
2018-09-20T08:45:08.109Z,9.30
2018-09-20T08:46:08.153Z,9.50
2018-09-20T08:47:08.192Z,9.20
2018-09-20T08:48:08.232Z,8.50
2018-09-20T08:49:08.273Z,9.70
2018-09-20T08:50:08.322Z,8.70
2018-09-20T08:51:08.429Z,8.30
2018-09-20T08:52:08.400Z,8.70
2018-09-20T08:53:08.441Z,8.00
2018-09-20T08:54:08.485Z,7.50
2018-09-20T08:55:08.529Z,8.30
2018-09-20T08:56:08.573Z,11.40
2018-09-20T08:57:08.648Z,8.00
2018-09-20T08:58:08.675Z,7.80
2018-09-20T08:59:08.717Z,8.00
2018-09-20T09:00:08.785Z,7.50
2018-09-20T09:01:08.803Z,7.60
2018-09-20T09:02:08.861Z,7.30
2018-09-20T09:03:08.898Z,6.70
2018-09-20T09:04:08.944Z,7.20
2018-09-20T09:05:08.980Z,7.20
2018-09-20T09:06:09.030Z,7.40
2018-09-20T09:07:09.073Z,7.30
2018-09-20T09:08:09.116Z,6.30
2018-09-20T09:09:09.172Z,6.50
2018-09-20T09:10:09.213Z,6.20
2018-09-20T09:11:11.887Z,8.40
2018-09-20T09:12:09.307Z,7.00
2018-09-20T09:13:09.358Z,6.60
2018-09-20T09:14:09.397Z,6.80
2018-09-20T09:15:09.496Z,6.60
2018-09-20T09:17:09.573Z,6.10
2018-09-20T09:18:09.588Z,7.00
2018-09-20T09:19:09.633Z,8.00
2018-09-20T09:20:09.725Z,5.70
2018-09-20T09:21:09.821Z,6.40
2018-09-20T09:22:14.870Z,6.20
2018-09-20T09:23:09.830Z,6.00
2018-09-20T09:24:09.877Z,6.50
2018-09-20T09:25:09.917Z,6.60
2018-09-20T09:26:09.974Z,6.90
2018-09-20T09:27:10.048Z,10.70
2018-09-20T09:28:10.068Z,6.30
2018-09-20T09:29:10.110Z,5.20
2018-09-20T09:30:10.158Z,7.70
2018-09-20T09:31:10.224Z,7.40
2018-09-20T09:32:10.265Z,7.10
2018-09-20T09:33:52.868Z,5.80
2018-09-20T09:34:52.935Z,5.00
2018-09-20T09:35:52.971Z,5.90
2018-09-20T09:36:53.024Z,7.20
2018-09-20T09:37:53.065Z,5.30
2018-09-20T09:38:53.123Z,10.60
2018-09-20T09:39:53.164Z,6.00
2018-09-20T09:40:53.213Z,6.30
2018-09-20T09:41:53.266Z,5.10
2018-09-20T09:42:53.312Z,5.10
2018-09-20T09:43:53.362Z,5.40
2018-09-20T09:44:53.417Z,5.80
2018-09-20T09:45:54.072Z,6.20
2018-09-20T09:46:53.515Z,6.00
2018-09-20T09:47:53.561Z,6.10
2018-09-20T09:48:53.612Z,5.10
2018-09-20T09:49:53.659Z,6.40
2018-09-20T09:50:53.723Z,5.40
2018-09-20T09:51:53.768Z,4.80
2018-09-20T09:53:41.388Z,4.80
2018-09-20T09:54:41.473Z,4.80
2018-09-20T09:55:41.526Z,4.60
2018-09-20T09:56:41.543Z,5.10
2018-09-20T09:57:41.594Z,4.30
2018-09-20T09:58:41.645Z,4.50
2018-09-20T09:59:41.714Z,3.90
2018-09-20T10:00:41.743Z,4.50
2018-09-20T10:01:41.800Z,5.70
2018-09-20T10:02:41.990Z,5.90
2018-09-20T10:03:41.899Z,4.40
2018-09-20T10:04:41.949Z,4.50
2018-09-20T10:05:42.005Z,6.50
2018-09-20T10:06:42.058Z,4.50
2018-09-20T10:07:42.103Z,7.80
2018-09-20T10:08:42.155Z,5.20
2018-09-20T10:09:42.207Z,7.60
2018-09-20T10:10:42.264Z,4.10
2018-09-20T10:11:44.933Z,3.90
2018-09-20T10:12:42.366Z,5.30
2018-09-20T10:13:42.471Z,4.50
2018-09-20T10:14:42.462Z,4.00
2018-09-20T10:15:42.517Z,7.60
2018-09-20T10:16:42.570Z,4.60
2018-09-20T10:17:44.041Z,4.60
2018-09-20T10:18:42.676Z,4.10
2018-09-20T10:19:42.727Z,6.00
2018-09-20T10:20:42.780Z,6.00
2018-09-20T10:21:42.827Z,3.90
2018-09-20T10:22:42.917Z,4.60
2018-09-20T10:23:42.941Z,5.50
2018-09-20T10:24:42.991Z,4.10
2018-09-20T10:25:43.044Z,5.10
2018-09-20T10:26:43.145Z,6.10
2018-09-20T10:27:43.141Z,5.30
2018-09-20T10:28:43.195Z,7.10
2018-09-20T10:29:43.252Z,4.70
2018-09-20T10:30:43.305Z,4.60
2018-09-20T10:31:43.360Z,3.70
2018-09-20T10:32:43.424Z,4.70
2018-09-20T10:33:43.468Z,4.20
2018-09-20T10:34:43.515Z,3.50
2018-09-20T10:35:43.572Z,5.80
2018-09-20T10:36:43.620Z,3.60
2018-09-20T10:37:43.682Z,7.60
2018-09-20T10:38:43.730Z,4.00
2018-09-20T10:39:43.782Z,3.60
2018-09-20T10:40:43.840Z,5.90
2018-09-20T10:41:43.891Z,3.40
2018-09-20T10:42:43.937Z,4.10
2018-09-20T10:43:43.993Z,5.40
2018-09-20T10:44:44.053Z,4.00
2018-09-20T10:45:44.105Z,4.10
2018-09-20T10:46:44.156Z,4.50
2018-09-20T10:47:44.210Z,4.20
2018-09-20T10:48:44.258Z,3.80
2018-09-20T10:49:44.316Z,3.80
2018-09-20T10:50:44.366Z,4.00
2018-09-20T10:51:44.425Z,5.00
2018-09-20T10:52:44.783Z,5.90
2018-09-20T10:53:44.527Z,4.10
2018-09-20T10:54:44.701Z,3.90
2018-09-20T10:55:44.634Z,3.80
2018-09-20T10:56:44.694Z,3.60
2018-09-20T10:57:44.729Z,4.40
2018-09-20T10:58:44.797Z,3.10
2018-09-20T10:59:44.855Z,3.60
2018-09-20T11:00:44.906Z,5.50
2018-09-20T11:01:44.958Z,4.00
2018-09-20T11:02:45.056Z,4.90
2018-09-20T11:03:45.081Z,3.60
2018-09-20T11:04:45.119Z,4.20
2018-09-20T11:05:45.383Z,3.50
2018-09-20T11:06:45.216Z,5.90
2018-09-20T11:07:45.269Z,3.70
2018-09-20T11:08:45.323Z,6.60
2018-09-20T11:09:45.378Z,4.00
2018-09-20T11:10:45.432Z,4.20
2018-09-20T11:11:45.490Z,5.70
2018-09-20T11:12:45.540Z,6.80
2018-09-20T11:13:45.596Z,3.30
2018-09-20T11:14:48.272Z,3.40
2018-09-20T11:15:45.703Z,3.40
2018-09-20T11:16:45.758Z,3.80
2018-09-20T11:17:45.814Z,3.50
2018-09-20T11:18:45.867Z,7.10
2018-09-20T11:19:45.960Z,5.80
2018-09-20T11:20:45.975Z,3.90
2018-09-20T11:21:46.029Z,4.80
2018-09-20T11:22:46.086Z,3.40
2018-09-20T11:23:46.139Z,3.60
2018-09-20T11:24:46.193Z,3.50
2018-09-20T11:25:46.714Z,5.10
2018-09-20T11:26:46.304Z,5.00
2018-09-20T11:27:46.358Z,3.00
2018-09-20T11:28:46.415Z,3.20
2018-09-20T11:31:46.804Z,5.80
2018-09-20T11:32:46.860Z,3.20
2018-09-20T11:33:46.689Z,2.90
2018-09-20T11:34:46.766Z,4.60
2018-09-20T11:35:47.020Z,3.50
2018-09-20T11:36:46.876Z,4.70
2018-09-20T11:38:46.963Z,2.90
2018-09-20T11:39:47.240Z,3.00
2018-09-20T11:42:47.205Z,2.70
2018-09-20T11:43:47.256Z,3.10
2018-09-20T11:45:47.344Z,3.20
2018-09-20T11:46:47.469Z,3.70
2018-09-20T11:47:47.654Z,3.10
2018-09-20T11:48:47.507Z,5.30
2018-09-20T11:49:47.967Z,3.30
2018-09-20T11:50:47.642Z,2.90
2018-09-20T11:51:47.899Z,3.60
2018-09-20T11:53:47.781Z,2.90
2018-09-20T11:54:48.039Z,3.40
2018-09-20T11:56:47.946Z,2.90
2018-09-20T11:57:48.028Z,2.90
2018-09-20T11:58:48.056Z,4.80
2018-09-20T11:59:48.110Z,2.80
2018-09-20T12:00:48.166Z,2.80
2018-09-20T12:02:48.301Z,3.40
2018-09-20T12:04:30.898Z,2.40
2018-09-20T12:05:30.957Z,2.70
2018-09-20T12:06:31.009Z,3.20
2018-09-20T12:07:31.062Z,2.70
2018-09-20T12:08:31.118Z,2.80
2018-09-20T12:09:31.174Z,3.50
2018-09-20T12:10:31.230Z,2.10
2018-09-20T12:11:31.286Z,2.50
2018-09-20T12:12:31.340Z,2.20
2018-09-20T12:13:31.421Z,6.70
2018-09-20T12:14:31.468Z,5.20
2018-09-20T12:15:31.508Z,2.60
2018-09-20T12:16:31.562Z,2.60
2018-09-20T12:17:31.618Z,2.80
2018-09-20T12:18:31.690Z,2.70
2018-09-20T12:19:31.729Z,4.50
2018-09-20T12:20:31.785Z,4.20
2018-09-20T12:21:31.842Z,4.30
2018-09-20T12:22:31.897Z,2.90
2018-09-20T12:23:31.952Z,3.20
2018-09-20T12:24:32.007Z,3.50
2018-09-20T12:25:32.064Z,3.40
2018-09-20T12:26:32.118Z,2.90
2018-09-20T12:27:32.173Z,2.90
2018-09-20T12:28:32.229Z,2.60
2018-09-20T12:29:32.284Z,2.90
2018-09-20T12:30:32.340Z,2.70
2018-09-20T12:31:32.453Z,3.40
2018-09-20T12:32:32.451Z,2.60
2018-09-20T12:33:32.507Z,3.00
2018-09-20T12:34:32.563Z,2.50
2018-09-20T12:35:32.742Z,2.70
2018-09-20T12:36:32.674Z,4.50
2018-09-20T12:37:32.730Z,2.90
2018-09-20T12:38:32.787Z,2.80
2018-09-20T12:39:32.839Z,3.50
2018-09-20T12:40:35.354Z,2.30
2018-09-20T12:41:32.952Z,2.80
2018-09-20T12:42:33.011Z,2.40
2018-09-20T12:43:33.065Z,2.60
2018-09-20T12:44:33.120Z,2.40
2018-09-20T12:45:33.176Z,2.40
2018-09-20T12:46:33.233Z,2.50
2018-09-20T12:47:33.286Z,2.10
2018-09-20T12:48:33.344Z,2.60
2018-09-20T12:49:33.398Z,2.40
2018-09-20T12:50:33.456Z,2.40
2018-09-20T12:51:33.509Z,5.30
2018-09-20T12:52:33.565Z,2.30
2018-09-20T12:53:33.621Z,2.70
2018-09-20T12:54:33.701Z,2.90
2018-09-20T12:55:33.735Z,4.30
2018-09-20T12:56:33.790Z,4.00
2018-09-20T12:57:33.844Z,3.50
2018-09-20T12:58:33.902Z,2.50
2018-09-20T12:59:33.956Z,2.80
2018-09-20T13:00:34.060Z,2.80
2018-09-20T13:01:34.066Z,2.60
2018-09-20T13:02:34.124Z,2.80
2018-09-20T13:03:34.177Z,2.40
2018-09-20T13:04:34.233Z,2.40
2018-09-20T13:05:34.291Z,2.50
2018-09-20T13:06:34.369Z,2.50
2018-09-20T13:07:34.413Z,2.30
2018-09-20T13:08:34.471Z,2.40
2018-09-20T13:09:34.527Z,2.50
2018-09-20T13:10:34.595Z,3.90
2018-09-20T13:11:34.638Z,5.00
2018-09-20T13:12:34.695Z,3.60
2018-09-20T13:13:34.757Z,2.50
2018-09-20T13:14:34.804Z,2.30
2018-09-20T13:15:34.857Z,2.50
2018-09-20T13:16:34.907Z,2.90
2018-09-20T13:17:34.969Z,2.90
2018-09-20T13:18:35.025Z,2.80
2018-09-20T13:19:35.073Z,2.20
2018-09-20T13:20:35.127Z,5.60
2018-09-20T13:21:35.187Z,2.60
2018-09-20T13:22:35.236Z,3.30
2018-09-20T13:23:35.302Z,2.50
2018-09-20T13:24:35.349Z,2.50
2018-09-20T13:25:35.479Z,2.50
2018-09-20T13:26:35.461Z,3.50
2018-09-20T13:27:35.515Z,2.30
2018-09-20T13:28:35.571Z,2.20
2018-09-20T13:29:35.619Z,2.50
2018-09-20T13:30:36.888Z,3.10
2018-09-20T13:31:35.758Z,4.00
2018-09-20T13:32:39.419Z,2.00
2018-09-20T13:33:35.850Z,2.20
2018-09-20T13:34:35.943Z,2.30
2018-09-20T13:35:35.955Z,2.40
2018-09-20T13:36:36.008Z,4.50
2018-09-20T13:37:36.061Z,2.20
2018-09-20T13:38:36.118Z,3.10
2018-09-20T13:39:36.169Z,4.10
2018-09-20T13:41:18.797Z,1.80
2018-09-20T13:42:18.847Z,3.80
2018-09-20T13:43:18.930Z,2.40
2018-09-20T13:44:18.962Z,2.60
2018-09-20T13:45:19.013Z,2.40
2018-09-20T13:46:19.074Z,2.70
2018-09-20T13:47:19.129Z,2.20
2018-09-20T13:48:19.184Z,5.60
2018-09-20T13:49:19.237Z,2.80
2018-09-20T13:50:19.293Z,2.00
2018-09-20T13:51:19.365Z,2.30
2018-09-20T13:52:19.409Z,5.20
2018-09-20T13:53:19.462Z,2.40
2018-09-20T13:54:19.516Z,2.90
2018-09-20T13:55:19.574Z,2.60
2018-09-20T13:56:19.659Z,2.50
2018-09-20T13:57:19.684Z,3.00
2018-09-20T13:58:19.881Z,2.50
2018-09-20T13:59:19.795Z,2.30
2018-09-20T14:00:19.850Z,2.60
2018-09-20T14:01:19.898Z,5.00
2018-09-20T14:02:19.964Z,4.40
2018-09-20T14:03:20.007Z,2.90
2018-09-20T14:04:20.064Z,2.30
2018-09-20T14:05:20.121Z,3.10
2018-09-20T14:06:20.175Z,3.80
2018-09-20T14:07:20.234Z,6.40
2018-09-20T14:08:20.286Z,2.40
2018-09-20T14:09:20.346Z,5.60
2018-09-20T14:10:20.396Z,2.60
2018-09-20T14:11:20.459Z,2.90
2018-09-20T14:12:20.512Z,2.20
2018-09-20T14:13:20.570Z,2.60
2018-09-20T14:14:20.621Z,3.10
2018-09-20T14:15:20.693Z,7.50
2018-09-20T14:16:20.729Z,3.00
2018-09-20T14:17:20.788Z,3.70
2018-09-20T14:18:20.835Z,2.60
2018-09-20T14:19:20.900Z,4.10
2018-09-20T14:20:20.951Z,4.50
2018-09-20T14:21:21.003Z,2.70
2018-09-20T14:22:21.053Z,2.30
2018-09-20T14:23:21.112Z,2.40
2018-09-20T14:24:21.234Z,2.60
2018-09-20T14:25:21.223Z,2.90
2018-09-20T14:26:21.274Z,2.50
2018-09-20T14:27:21.347Z,2.90
2018-09-20T14:28:21.384Z,3.20
2018-09-20T14:29:21.439Z,2.40
2018-09-20T14:30:21.492Z,3.30
2018-09-20T14:31:21.551Z,2.50
2018-09-20T14:32:21.598Z,2.70
2018-09-20T14:33:21.660Z,2.50
2018-09-20T14:34:21.717Z,3.00
2018-09-20T14:35:21.777Z,4.20
2018-09-20T14:36:21.821Z,4.10
2018-09-20T14:37:21.874Z,2.00
2018-09-20T14:38:21.945Z,2.40
2018-09-20T14:39:21.988Z,4.00
2018-09-20T14:40:22.066Z,2.70
2018-09-20T14:41:22.092Z,2.90
2018-09-20T14:42:22.151Z,3.00
2018-09-20T14:43:22.212Z,3.60
2018-09-20T14:44:22.260Z,3.50
2018-09-20T14:45:22.320Z,4.10
2018-09-20T14:46:22.372Z,4.40
2018-09-20T14:47:22.421Z,2.50
2018-09-20T14:48:22.475Z,4.00
2018-09-20T14:49:22.536Z,2.10
2018-09-20T14:50:22.584Z,2.80
2018-09-20T14:51:22.638Z,2.70
2018-09-20T14:52:22.699Z,3.50
2018-09-20T14:53:22.754Z,2.30
2018-09-20T14:54:22.789Z,2.30
2018-09-20T14:55:22.863Z,3.10
2018-09-20T14:56:22.915Z,3.70
2018-09-20T14:57:22.972Z,3.30
2018-09-20T14:58:23.023Z,2.70
2018-09-20T14:59:23.074Z,3.20
2018-09-20T15:00:23.134Z,2.80
2018-09-20T15:01:23.187Z,3.50
2018-09-20T15:02:23.306Z,2.80
2018-09-20T15:03:23.295Z,2.70
2018-09-20T15:04:23.354Z,4.50
2018-09-20T15:05:23.385Z,3.70
2018-09-20T15:06:23.442Z,3.00
2018-09-20T15:07:23.493Z,3.50
2018-09-20T15:08:23.546Z,4.00
2018-09-20T15:09:23.600Z,2.70
2018-09-20T15:10:23.654Z,2.80
2018-09-20T15:11:23.708Z,4.50
2018-09-20T15:12:23.761Z,2.90
2018-09-20T15:13:23.813Z,2.50
2018-09-20T15:14:23.872Z,2.70
2018-09-20T15:16:11.501Z,3.90
2018-09-20T15:17:11.553Z,4.10
2018-09-20T15:18:11.605Z,2.90
2018-09-20T15:19:11.659Z,2.60
2018-09-20T15:20:11.714Z,2.40
2018-09-20T15:21:11.765Z,5.60